sensor_id;sensor_type;location;lat;lon;timestamp;P1;durP1;ratioP1;P2;durP2;ratioP2
75930;SDS011;64609;47.052;15.462;2022-12-29T00:02:07;29.13;;;17.50;;
75930;SDS011;64609;47.052;15.462;2022-12-29T00:04:33;32.00;;;17.38;;
75930;SDS011;64609;47.052;15.462;2022-12-29T00:06:59;30.05;;;17.17;;
75930;SDS011;64609;47.052;15.462;2022-12-29T00:09:25;34.55;;;18.30;;
75930;SDS011;64609;47.052;15.462;2022-12-29T00:11:51;29.95;;;17.50;;
75930;SDS011;64609;47.052;15.462;2022-12-29T00:14:17;32.03;;;18.13;;
75930;SDS011;64609;47.052;15.462;2022-12-29T00:17:01;34.13;;;18.05;;
75930;SDS011;64609;47.052;15.462;2022-12-29T00:19:27;32.47;;;17.17;;
75930;SDS011;64609;47.052;15.462;2022-12-29T00:22:12;31.70;;;17.58;;
75930;SDS011;64609;47.052;15.462;2022-12-29T00:24:57;30.85;;;18.08;;
75930;SDS011;64609;47.052;15.462;2022-12-29T00:27:27;143.02;;;66.03;;
75930;SDS011;64609;47.052;15.462;2022-12-29T00:30:14;44.47;;;24.08;;
75930;SDS011;64609;47.052;15.462;2022-12-29T00:33:00;34.33;;;19.52;;
75930;SDS011;64609;47.052;15.462;2022-12-29T00:35:52;33.60;;;18.83;;
75930;SDS011;64609;47.052;15.462;2022-12-29T00:38:21;31.83;;;18.40;;
75930;SDS011;64609;47.052;15.462;2022-12-29T00:41:05;36.15;;;17.48;;
75930;SDS011;64609;47.052;15.462;2022-12-29T00:43:49;30.60;;;17.73;;
75930;SDS011;64609;47.052;15.462;2022-12-29T00:46:30;26.73;;;17.08;;
75930;SDS011;64609;47.052;15.462;2022-12-29T00:48:59;30.98;;;15.82;;
75930;SDS011;64609;47.052;15.462;2022-12-29T00:51:44;30.55;;;16.75;;
75930;SDS011;64609;47.052;15.462;2022-12-29T00:54:10;29.15;;;16.65;;
75930;SDS011;64609;47.052;15.462;2022-12-29T00:56:36;32.53;;;18.30;;
75930;SDS011;64609;47.052;15.462;2022-12-29T00:59:02;35.50;;;18.25;;
75930;SDS011;64609;47.052;15.462;2022-12-29T01:01:28;32.25;;;17.17;;
75930;SDS011;64609;47.052;15.462;2022-12-29T01:03:54;31.05;;;16.90;;
75930;SDS011;64609;47.052;15.462;2022-12-29T01:06:20;30.38;;;17.13;;
75930;SDS011;64609;47.052;15.462;2022-12-29T01:08:45;29.73;;;16.33;;
75930;SDS011;64609;47.052;15.462;2022-12-29T01:11:12;28.35;;;16.00;;
75930;SDS011;64609;47.052;15.462;2022-12-29T01:13:38;50.97;;;26.45;;
75930;SDS011;64609;47.052;15.462;2022-12-29T01:16:06;54.95;;;28.23;;
75930;SDS011;64609;47.052;15.462;2022-12-29T01:18:32;46.65;;;25.10;;
75930;SDS011;64609;47.052;15.462;2022-12-29T01:20:59;47.72;;;25.35;;
75930;SDS011;64609;47.052;15.462;2022-12-29T01:23:25;38.35;;;18.20;;
75930;SDS011;64609;47.052;15.462;2022-12-29T01:25:50;29.25;;;16.15;;
75930;SDS011;64609;47.052;15.462;2022-12-29T01:28:16;34.50;;;18.75;;
75930;SDS011;64609;47.052;15.462;2022-12-29T01:30:41;30.20;;;17.83;;
75930;SDS011;64609;47.052;15.462;2022-12-29T01:33:07;29.52;;;17.40;;
75930;SDS011;64609;47.052;15.462;2022-12-29T01:35:33;28.00;;;15.48;;
75930;SDS011;64609;47.052;15.462;2022-12-29T01:37:58;27.27;;;14.45;;
75930;SDS011;64609;47.052;15.462;2022-12-29T01:40:24;30.20;;;15.20;;
75930;SDS011;64609;47.052;15.462;2022-12-29T01:42:50;28.75;;;16.67;;
75930;SDS011;64609;47.052;15.462;2022-12-29T01:45:16;24.27;;;15.25;;
75930;SDS011;64609;47.052;15.462;2022-12-29T01:50:14;37.63;;;26.85;;
75930;SDS011;64609;47.052;15.462;2022-12-29T01:52:59;27.77;;;16.58;;
75930;SDS011;64609;47.052;15.462;2022-12-29T01:55:29;29.67;;;15.48;;
75930;SDS011;64609;47.052;15.462;2022-12-29T01:57:58;26.50;;;16.23;;
75930;SDS011;64609;47.052;15.462;2022-12-29T02:00:27;29.63;;;15.85;;
75930;SDS011;64609;47.052;15.462;2022-12-29T02:02:53;30.30;;;16.48;;
75930;SDS011;64609;47.052;15.462;2022-12-29T02:05:39;28.95;;;17.45;;
75930;SDS011;64609;47.052;15.462;2022-12-29T02:08:28;26.70;;;15.40;;
75930;SDS011;64609;47.052;15.462;2022-12-29T02:10:55;23.17;;;14.60;;
75930;SDS011;64609;47.052;15.462;2022-12-29T02:13:23;29.02;;;14.77;;
75930;SDS011;64609;47.052;15.462;2022-12-29T02:27:21;22.73;;;13.75;;
75930;SDS011;64609;47.052;15.462;2022-12-29T02:35:25;28.25;;;14.07;;
75930;SDS011;64609;47.052;15.462;2022-12-29T02:40:38;22.83;;;12.60;;
75930;SDS011;64609;47.052;15.462;2022-12-29T02:43:27;24.38;;;12.73;;
75930;SDS011;64609;47.052;15.462;2022-12-29T02:51:21;23.30;;;12.80;;
75930;SDS011;64609;47.052;15.462;2022-12-29T02:53:53;21.77;;;13.98;;
75930;SDS011;64609;47.052;15.462;2022-12-29T02:56:40;21.50;;;13.98;;
75930;SDS011;64609;47.052;15.462;2022-12-29T02:59:06;23.50;;;13.65;;
75930;SDS011;64609;47.052;15.462;2022-12-29T03:01:51;22.67;;;13.02;;
75930;SDS011;64609;47.052;15.462;2022-12-29T03:07:33;24.70;;;13.90;;
75930;SDS011;64609;47.052;15.462;2022-12-29T03:10:27;60.13;;;33.47;;
75930;SDS011;64609;47.052;15.462;2022-12-29T03:15:55;36.55;;;20.38;;
75930;SDS011;64609;47.052;15.462;2022-12-29T03:24:15;24.42;;;13.55;;
75930;SDS011;64609;47.052;15.462;2022-12-29T03:26:44;24.70;;;13.57;;
75930;SDS011;64609;47.052;15.462;2022-12-29T03:29:12;23.00;;;14.50;;
75930;SDS011;64609;47.052;15.462;2022-12-29T03:31:40;23.95;;;13.65;;
75930;SDS011;64609;47.052;15.462;2022-12-29T03:34:07;21.35;;;13.10;;
75930;SDS011;64609;47.052;15.462;2022-12-29T03:36:39;22.05;;;12.82;;
75930;SDS011;64609;47.052;15.462;2022-12-29T03:39:11;21.67;;;14.00;;
75930;SDS011;64609;47.052;15.462;2022-12-29T03:41:39;22.52;;;13.73;;
75930;SDS011;64609;47.052;15.462;2022-12-29T03:44:08;23.80;;;14.07;;
75930;SDS011;64609;47.052;15.462;2022-12-29T03:46:34;25.23;;;14.30;;
75930;SDS011;64609;47.052;15.462;2022-12-29T03:49:00;27.33;;;14.77;;
75930;SDS011;64609;47.052;15.462;2022-12-29T03:51:25;23.17;;;13.93;;
75930;SDS011;64609;47.052;15.462;2022-12-29T03:53:51;26.77;;;13.45;;
75930;SDS011;64609;47.052;15.462;2022-12-29T03:56:17;25.48;;;13.77;;
75930;SDS011;64609;47.052;15.462;2022-12-29T03:58:42;23.50;;;13.48;;
75930;SDS011;64609;47.052;15.462;2022-12-29T04:01:08;23.58;;;13.65;;
75930;SDS011;64609;47.052;15.462;2022-12-29T04:03:33;26.63;;;13.80;;
75930;SDS011;64609;47.052;15.462;2022-12-29T04:05:59;28.63;;;13.45;;
75930;SDS011;64609;47.052;15.462;2022-12-29T04:08:25;22.17;;;13.68;;
75930;SDS011;64609;47.052;15.462;2022-12-29T04:10:50;25.05;;;13.15;;
75930;SDS011;64609;47.052;15.462;2022-12-29T04:13:16;20.27;;;12.20;;
75930;SDS011;64609;47.052;15.462;2022-12-29T04:15:42;22.73;;;13.75;;
75930;SDS011;64609;47.052;15.462;2022-12-29T04:18:10;20.77;;;13.07;;
75930;SDS011;64609;47.052;15.462;2022-12-29T04:20:36;20.73;;;13.35;;
75930;SDS011;64609;47.052;15.462;2022-12-29T04:23:20;24.05;;;12.27;;
75930;SDS011;64609;47.052;15.462;2022-12-29T04:25:46;20.40;;;12.23;;
75930;SDS011;64609;47.052;15.462;2022-12-29T04:28:12;27.38;;;12.32;;
75930;SDS011;64609;47.052;15.462;2022-12-29T04:30:38;19.83;;;12.43;;
75930;SDS011;64609;47.052;15.462;2022-12-29T04:33:04;19.27;;;11.48;;
75930;SDS011;64609;47.052;15.462;2022-12-29T04:35:30;23.17;;;12.48;;
75930;SDS011;64609;47.052;15.462;2022-12-29T04:37:56;26.20;;;12.38;;
75930;SDS011;64609;47.052;15.462;2022-12-29T04:40:21;18.30;;;12.80;;
75930;SDS011;64609;47.052;15.462;2022-12-29T04:42:48;23.90;;;13.65;;
75930;SDS011;64609;47.052;15.462;2022-12-29T04:45:14;19.25;;;12.18;;
75930;SDS011;64609;47.052;15.462;2022-12-29T04:47:40;25.27;;;13.40;;
75930;SDS011;64609;47.052;15.462;2022-12-29T04:50:05;25.65;;;13.68;;
75930;SDS011;64609;47.052;15.462;2022-12-29T04:52:31;20.35;;;12.38;;
75930;SDS011;64609;47.052;15.462;2022-12-29T04:54:57;21.23;;;13.50;;
75930;SDS011;64609;47.052;15.462;2022-12-29T04:57:23;21.75;;;13.07;;
75930;SDS011;64609;47.052;15.462;2022-12-29T04:59:48;22.67;;;12.63;;
75930;SDS011;64609;47.052;15.462;2022-12-29T05:02:14;20.67;;;13.38;;
75930;SDS011;64609;47.052;15.462;2022-12-29T05:04:41;20.35;;;12.93;;
75930;SDS011;64609;47.052;15.462;2022-12-29T05:07:07;21.42;;;12.98;;
75930;SDS011;64609;47.052;15.462;2022-12-29T05:09:32;23.13;;;13.20;;
75930;SDS011;64609;47.052;15.462;2022-12-29T05:11:58;24.15;;;12.18;;
75930;SDS011;64609;47.052;15.462;2022-12-29T05:14:24;21.20;;;12.13;;
75930;SDS011;64609;47.052;15.462;2022-12-29T05:16:49;25.55;;;12.68;;
75930;SDS011;64609;47.052;15.462;2022-12-29T05:19:15;22.30;;;12.05;;
75930;SDS011;64609;47.052;15.462;2022-12-29T05:21:41;21.80;;;11.98;;
75930;SDS011;64609;47.052;15.462;2022-12-29T05:24:07;21.60;;;12.25;;
75930;SDS011;64609;47.052;15.462;2022-12-29T05:26:33;21.70;;;11.60;;
75930;SDS011;64609;47.052;15.462;2022-12-29T05:28:58;24.77;;;12.70;;
75930;SDS011;64609;47.052;15.462;2022-12-29T05:31:24;23.20;;;11.70;;
75930;SDS011;64609;47.052;15.462;2022-12-29T05:33:50;18.50;;;12.45;;
75930;SDS011;64609;47.052;15.462;2022-12-29T05:36:16;23.73;;;12.57;;
75930;SDS011;64609;47.052;15.462;2022-12-29T05:38:42;23.25;;;12.60;;
75930;SDS011;64609;47.052;15.462;2022-12-29T05:41:08;18.83;;;11.23;;
75930;SDS011;64609;47.052;15.462;2022-12-29T05:43:34;26.75;;;12.95;;
75930;SDS011;64609;47.052;15.462;2022-12-29T05:46:00;23.75;;;13.20;;
75930;SDS011;64609;47.052;15.462;2022-12-29T05:48:26;23.35;;;12.65;;
75930;SDS011;64609;47.052;15.462;2022-12-29T05:50:52;23.63;;;12.90;;
75930;SDS011;64609;47.052;15.462;2022-12-29T05:53:17;32.83;;;16.67;;
75930;SDS011;64609;47.052;15.462;2022-12-29T05:55:44;49.53;;;22.67;;
75930;SDS011;64609;47.052;15.462;2022-12-29T05:58:12;66.55;;;30.65;;
75930;SDS011;64609;47.052;15.462;2022-12-29T06:00:38;58.63;;;26.98;;
75930;SDS011;64609;47.052;15.462;2022-12-29T06:03:04;56.00;;;26.10;;
75930;SDS011;64609;47.052;15.462;2022-12-29T06:05:30;54.53;;;22.95;;
75930;SDS011;64609;47.052;15.462;2022-12-29T06:07:56;56.97;;;26.00;;
75930;SDS011;64609;47.052;15.462;2022-12-29T06:10:21;45.35;;;20.75;;
75930;SDS011;64609;47.052;15.462;2022-12-29T06:12:47;48.90;;;21.58;;
75930;SDS011;64609;47.052;15.462;2022-12-29T06:15:13;48.03;;;22.42;;
75930;SDS011;64609;47.052;15.462;2022-12-29T06:17:38;46.20;;;21.00;;
75930;SDS011;64609;47.052;15.462;2022-12-29T06:20:04;42.90;;;21.15;;
75930;SDS011;64609;47.052;15.462;2022-12-29T06:22:31;37.40;;;18.50;;
75930;SDS011;64609;47.052;15.462;2022-12-29T06:24:56;35.15;;;17.75;;
75930;SDS011;64609;47.052;15.462;2022-12-29T06:27:22;30.08;;;16.00;;
75930;SDS011;64609;47.052;15.462;2022-12-29T06:29:47;33.67;;;17.08;;
75930;SDS011;64609;47.052;15.462;2022-12-29T06:32:14;36.95;;;17.60;;
75930;SDS011;64609;47.052;15.462;2022-12-29T06:34:40;35.03;;;16.88;;
75930;SDS011;64609;47.052;15.462;2022-12-29T06:37:06;29.90;;;16.08;;
75930;SDS011;64609;47.052;15.462;2022-12-29T06:39:32;27.85;;;16.23;;
75930;SDS011;64609;47.052;15.462;2022-12-29T06:41:58;29.25;;;16.00;;
75930;SDS011;64609;47.052;15.462;2022-12-29T06:44:23;27.15;;;14.80;;
75930;SDS011;64609;47.052;15.462;2022-12-29T06:46:49;30.02;;;14.98;;
75930;SDS011;64609;47.052;15.462;2022-12-29T06:49:15;27.23;;;15.15;;
75930;SDS011;64609;47.052;15.462;2022-12-29T06:51:41;26.38;;;14.75;;
75930;SDS011;64609;47.052;15.462;2022-12-29T06:54:07;22.75;;;12.85;;
75930;SDS011;64609;47.052;15.462;2022-12-29T06:56:32;27.80;;;15.30;;
75930;SDS011;64609;47.052;15.462;2022-12-29T06:58:58;26.02;;;14.05;;
75930;SDS011;64609;47.052;15.462;2022-12-29T07:01:27;26.20;;;14.68;;
75930;SDS011;64609;47.052;15.462;2022-12-29T07:03:52;25.00;;;13.77;;
75930;SDS011;64609;47.052;15.462;2022-12-29T07:06:18;28.52;;;15.77;;
75930;SDS011;64609;47.052;15.462;2022-12-29T07:08:44;33.83;;;17.98;;
75930;SDS011;64609;47.052;15.462;2022-12-29T07:11:10;31.60;;;17.85;;
75930;SDS011;64609;47.052;15.462;2022-12-29T07:13:35;30.23;;;19.10;;
75930;SDS011;64609;47.052;15.462;2022-12-29T07:16:05;35.15;;;20.52;;
75930;SDS011;64609;47.052;15.462;2022-12-29T07:18:32;29.00;;;16.75;;
75930;SDS011;64609;47.052;15.462;2022-12-29T07:20:57;31.13;;;19.13;;
75930;SDS011;64609;47.052;15.462;2022-12-29T07:23:23;32.92;;;17.35;;
75930;SDS011;64609;47.052;15.462;2022-12-29T07:25:48;32.33;;;18.05;;
75930;SDS011;64609;47.052;15.462;2022-12-29T07:28:14;28.92;;;17.55;;
75930;SDS011;64609;47.052;15.462;2022-12-29T07:30:40;29.52;;;18.35;;
75930;SDS011;64609;47.052;15.462;2022-12-29T07:33:05;33.80;;;20.75;;
75930;SDS011;64609;47.052;15.462;2022-12-29T07:35:31;32.75;;;18.85;;
75930;SDS011;64609;47.052;15.462;2022-12-29T07:37:59;31.08;;;20.17;;
75930;SDS011;64609;47.052;15.462;2022-12-29T07:40:24;33.95;;;19.00;;
75930;SDS011;64609;47.052;15.462;2022-12-29T07:42:50;30.00;;;19.17;;
75930;SDS011;64609;47.052;15.462;2022-12-29T07:45:15;27.63;;;16.77;;
75930;SDS011;64609;47.052;15.462;2022-12-29T07:47:41;27.33;;;15.80;;
75930;SDS011;64609;47.052;15.462;2022-12-29T07:50:07;31.65;;;18.95;;
75930;SDS011;64609;47.052;15.462;2022-12-29T07:52:32;24.55;;;16.27;;
75930;SDS011;64609;47.052;15.462;2022-12-29T07:54:58;26.88;;;16.10;;
75930;SDS011;64609;47.052;15.462;2022-12-29T07:57:24;24.50;;;15.20;;
75930;SDS011;64609;47.052;15.462;2022-12-29T07:59:49;26.02;;;16.33;;
75930;SDS011;64609;47.052;15.462;2022-12-29T08:02:15;29.90;;;16.58;;
75930;SDS011;64609;47.052;15.462;2022-12-29T08:04:40;25.80;;;16.05;;
75930;SDS011;64609;47.052;15.462;2022-12-29T08:07:06;22.38;;;13.95;;
75930;SDS011;64609;47.052;15.462;2022-12-29T08:09:32;25.05;;;15.15;;
75930;SDS011;64609;47.052;15.462;2022-12-29T08:11:57;23.58;;;14.93;;
75930;SDS011;64609;47.052;15.462;2022-12-29T08:14:23;23.65;;;13.73;;
75930;SDS011;64609;47.052;15.462;2022-12-29T08:16:48;25.15;;;13.68;;
75930;SDS011;64609;47.052;15.462;2022-12-29T08:19:14;22.38;;;13.07;;
75930;SDS011;64609;47.052;15.462;2022-12-29T08:21:40;23.42;;;13.40;;
75930;SDS011;64609;47.052;15.462;2022-12-29T08:24:06;18.92;;;12.38;;
75930;SDS011;64609;47.052;15.462;2022-12-29T08:26:32;19.10;;;11.68;;
75930;SDS011;64609;47.052;15.462;2022-12-29T08:28:58;16.92;;;11.35;;
75930;SDS011;64609;47.052;15.462;2022-12-29T08:31:24;15.95;;;10.93;;
75930;SDS011;64609;47.052;15.462;2022-12-29T08:33:50;18.52;;;11.57;;
75930;SDS011;64609;47.052;15.462;2022-12-29T08:36:15;19.35;;;12.43;;
75930;SDS011;64609;47.052;15.462;2022-12-29T08:38:41;18.98;;;12.10;;
75930;SDS011;64609;47.052;15.462;2022-12-29T08:41:07;15.35;;;11.00;;
75930;SDS011;64609;47.052;15.462;2022-12-29T08:43:32;15.35;;;11.27;;
75930;SDS011;64609;47.052;15.462;2022-12-29T08:45:58;17.83;;;11.10;;
75930;SDS011;64609;47.052;15.462;2022-12-29T08:48:24;17.83;;;11.77;;
75930;SDS011;64609;47.052;15.462;2022-12-29T08:50:51;14.82;;;10.82;;
75930;SDS011;64609;47.052;15.462;2022-12-29T08:53:17;16.20;;;10.85;;
75930;SDS011;64609;47.052;15.462;2022-12-29T08:55:46;19.23;;;11.52;;
75930;SDS011;64609;47.052;15.462;2022-12-29T08:58:12;17.05;;;11.45;;
75930;SDS011;64609;47.052;15.462;2022-12-29T09:00:40;15.85;;;10.75;;
75930;SDS011;64609;47.052;15.462;2022-12-29T09:03:06;17.13;;;11.38;;
75930;SDS011;64609;47.052;15.462;2022-12-29T09:05:31;15.45;;;10.63;;
75930;SDS011;64609;47.052;15.462;2022-12-29T09:07:57;16.45;;;11.00;;
75930;SDS011;64609;47.052;15.462;2022-12-29T09:10:23;16.90;;;12.40;;
75930;SDS011;64609;47.052;15.462;2022-12-29T09:12:48;23.50;;;12.95;;
75930;SDS011;64609;47.052;15.462;2022-12-29T09:15:14;15.65;;;11.98;;
75930;SDS011;64609;47.052;15.462;2022-12-29T09:17:40;18.38;;;12.70;;
75930;SDS011;64609;47.052;15.462;2022-12-29T09:20:16;20.75;;;12.68;;
75930;SDS011;64609;47.052;15.462;2022-12-29T09:22:43;22.05;;;12.82;;
75930;SDS011;64609;47.052;15.462;2022-12-29T09:25:09;21.27;;;12.90;;
75930;SDS011;64609;47.052;15.462;2022-12-29T09:27:35;29.02;;;13.90;;
75930;SDS011;64609;47.052;15.462;2022-12-29T09:30:02;21.95;;;13.05;;
75930;SDS011;64609;47.052;15.462;2022-12-29T09:32:30;22.42;;;12.82;;
75930;SDS011;64609;47.052;15.462;2022-12-29T09:34:56;19.08;;;12.70;;
75930;SDS011;64609;47.052;15.462;2022-12-29T09:37:22;21.73;;;13.55;;
75930;SDS011;64609;47.052;15.462;2022-12-29T09:39:47;21.92;;;12.32;;
75930;SDS011;64609;47.052;15.462;2022-12-29T09:42:59;23.20;;;11.38;;
75930;SDS011;64609;47.052;15.462;2022-12-29T09:45:19;20.98;;;12.00;;
75930;SDS011;64609;47.052;15.462;2022-12-29T09:47:54;20.42;;;11.93;;
75930;SDS011;64609;47.052;15.462;2022-12-29T09:50:22;20.90;;;11.27;;
75930;SDS011;64609;47.052;15.462;2022-12-29T09:52:58;21.10;;;12.02;;
75930;SDS011;64609;47.052;15.462;2022-12-29T09:55:36;17.17;;;11.52;;
75930;SDS011;64609;47.052;15.462;2022-12-29T09:58:10;22.05;;;12.43;;
75930;SDS011;64609;47.052;15.462;2022-12-29T10:01:06;20.77;;;13.63;;
75930;SDS011;64609;47.052;15.462;2022-12-29T10:03:52;19.98;;;13.88;;
75930;SDS011;64609;47.052;15.462;2022-12-29T10:06:22;22.33;;;14.35;;
75930;SDS011;64609;47.052;15.462;2022-12-29T10:11:25;25.17;;;13.32;;
75930;SDS011;64609;47.052;15.462;2022-12-29T10:20:24;24.80;;;14.23;;
75930;SDS011;64609;47.052;15.462;2022-12-29T10:25:44;22.73;;;15.05;;
75930;SDS011;64609;47.052;15.462;2022-12-29T10:28:33;25.00;;;13.82;;
75930;SDS011;64609;47.052;15.462;2022-12-29T10:31:03;24.38;;;13.35;;
75930;SDS011;64609;47.052;15.462;2022-12-29T10:33:34;22.48;;;12.70;;
75930;SDS011;64609;47.052;15.462;2022-12-29T10:36:15;22.52;;;13.90;;
75930;SDS011;64609;47.052;15.462;2022-12-29T10:41:27;21.83;;;14.35;;
75930;SDS011;64609;47.052;15.462;2022-12-29T10:43:59;23.88;;;13.38;;
75930;SDS011;64609;47.052;15.462;2022-12-29T10:46:29;22.65;;;13.30;;
75930;SDS011;64609;47.052;15.462;2022-12-29T10:48:58;24.30;;;13.13;;
75930;SDS011;64609;47.052;15.462;2022-12-29T10:51:25;23.92;;;13.35;;
75930;SDS011;64609;47.052;15.462;2022-12-29T10:53:56;23.58;;;13.45;;
75930;SDS011;64609;47.052;15.462;2022-12-29T10:59:22;28.30;;;12.55;;
75930;SDS011;64609;47.052;15.462;2022-12-29T11:04:33;26.38;;;14.85;;
75930;SDS011;64609;47.052;15.462;2022-12-29T11:07:03;21.70;;;13.00;;
75930;SDS011;64609;47.052;15.462;2022-12-29T11:09:32;24.10;;;12.73;;
75930;SDS011;64609;47.052;15.462;2022-12-29T11:12:15;20.38;;;12.38;;
75930;SDS011;64609;47.052;15.462;2022-12-29T11:15:12;19.77;;;13.05;;
75930;SDS011;64609;47.052;15.462;2022-12-29T11:17:47;25.77;;;12.48;;
75930;SDS011;64609;47.052;15.462;2022-12-29T11:20:34;23.00;;;12.95;;
75930;SDS011;64609;47.052;15.462;2022-12-29T11:28:44;28.50;;;12.73;;
75930;SDS011;64609;47.052;15.462;2022-12-29T11:31:29;23.05;;;11.98;;
75930;SDS011;64609;47.052;15.462;2022-12-29T11:33:55;20.17;;;12.25;;
75930;SDS011;64609;47.052;15.462;2022-12-29T11:36:21;21.42;;;11.82;;
75930;SDS011;64609;47.052;15.462;2022-12-29T11:38:49;26.77;;;12.18;;
75930;SDS011;64609;47.052;15.462;2022-12-29T11:41:21;20.17;;;11.30;;
75930;SDS011;64609;47.052;15.462;2022-12-29T11:43:50;15.40;;;10.13;;
75930;SDS011;64609;47.052;15.462;2022-12-29T11:46:38;19.70;;;10.65;;
75930;SDS011;64609;47.052;15.462;2022-12-29T11:49:03;18.52;;;10.52;;
75930;SDS011;64609;47.052;15.462;2022-12-29T11:51:51;20.23;;;10.77;;
75930;SDS011;64609;47.052;15.462;2022-12-29T11:54:18;18.63;;;10.82;;
75930;SDS011;64609;47.052;15.462;2022-12-29T11:56:47;24.20;;;11.18;;
75930;SDS011;64609;47.052;15.462;2022-12-29T12:01:52;21.08;;;11.93;;
75930;SDS011;64609;47.052;15.462;2022-12-29T12:04:21;16.88;;;10.98;;
75930;SDS011;64609;47.052;15.462;2022-12-29T12:06:59;33.97;;;11.02;;
75930;SDS011;64609;47.052;15.462;2022-12-29T12:09:32;22.60;;;11.00;;
75930;SDS011;64609;47.052;15.462;2022-12-29T12:12:05;23.17;;;11.32;;
75930;SDS011;64609;47.052;15.462;2022-12-29T12:15:01;19.08;;;8.90;;
75930;SDS011;64609;47.052;15.462;2022-12-29T12:17:31;18.75;;;8.90;;
75930;SDS011;64609;47.052;15.462;2022-12-29T12:20:20;20.58;;;8.75;;
75930;SDS011;64609;47.052;15.462;2022-12-29T12:28:46;12.32;;;6.10;;
75930;SDS011;64609;47.052;15.462;2022-12-29T12:34:20;11.43;;;5.80;;
75930;SDS011;64609;47.052;15.462;2022-12-29T12:39:27;11.02;;;5.60;;
75930;SDS011;64609;47.052;15.462;2022-12-29T12:47:56;9.13;;;5.78;;
75930;SDS011;64609;47.052;15.462;2022-12-29T12:53:35;9.13;;;4.60;;
75930;SDS011;64609;47.052;15.462;2022-12-29T12:59:10;9.10;;;4.60;;
75930;SDS011;64609;47.052;15.462;2022-12-29T13:01:56;11.38;;;5.15;;
75930;SDS011;64609;47.052;15.462;2022-12-29T13:22:07;14.52;;;4.97;;
75930;SDS011;64609;47.052;15.462;2022-12-29T13:30:18;14.88;;;4.95;;
75930;SDS011;64609;47.052;15.462;2022-12-29T13:38:12;13.65;;;6.70;;
75930;SDS011;64609;47.052;15.462;2022-12-29T13:40:48;14.82;;;6.20;;
75930;SDS011;64609;47.052;15.462;2022-12-29T13:43:18;13.63;;;6.35;;
75930;SDS011;64609;47.052;15.462;2022-12-29T13:45:46;12.73;;;5.70;;
75930;SDS011;64609;47.052;15.462;2022-12-29T13:51:35;16.67;;;5.88;;
75930;SDS011;64609;47.052;15.462;2022-12-29T13:56:59;14.00;;;6.13;;
75930;SDS011;64609;47.052;15.462;2022-12-29T13:59:37;12.88;;;5.90;;
75930;SDS011;64609;47.052;15.462;2022-12-29T14:05:02;10.38;;;5.65;;
75930;SDS011;64609;47.052;15.462;2022-12-29T14:07:35;12.98;;;5.70;;
75930;SDS011;64609;47.052;15.462;2022-12-29T14:10:02;15.18;;;6.53;;
75930;SDS011;64609;47.052;15.462;2022-12-29T14:15:05;10.18;;;5.80;;
75930;SDS011;64609;47.052;15.462;2022-12-29T14:17:40;12.00;;;6.18;;
75930;SDS011;64609;47.052;15.462;2022-12-29T14:20:16;15.50;;;6.20;;
75930;SDS011;64609;47.052;15.462;2022-12-29T14:28:27;12.70;;;6.38;;
75930;SDS011;64609;47.052;15.462;2022-12-29T14:30:57;11.50;;;5.82;;
75930;SDS011;64609;47.052;15.462;2022-12-29T14:33:25;10.73;;;5.57;;
75930;SDS011;64609;47.052;15.462;2022-12-29T14:35:53;14.25;;;6.20;;
75930;SDS011;64609;47.052;15.462;2022-12-29T14:38:24;15.32;;;5.70;;
75930;SDS011;64609;47.052;15.462;2022-12-29T14:40:52;12.40;;;6.80;;
75930;SDS011;64609;47.052;15.462;2022-12-29T14:43:38;13.82;;;6.32;;
75930;SDS011;64609;47.052;15.462;2022-12-29T14:46:03;11.32;;;6.05;;
75930;SDS011;64609;47.052;15.462;2022-12-29T14:51:02;12.90;;;6.20;;
75930;SDS011;64609;47.052;15.462;2022-12-29T14:53:45;13.57;;;6.50;;
75930;SDS011;64609;47.052;15.462;2022-12-29T14:56:14;13.85;;;7.20;;
75930;SDS011;64609;47.052;15.462;2022-12-29T15:01:26;13.38;;;6.97;;
75930;SDS011;64609;47.052;15.462;2022-12-29T15:04:14;15.95;;;6.45;;
75930;SDS011;64609;47.052;15.462;2022-12-29T15:06:50;16.95;;;7.03;;
75930;SDS011;64609;47.052;15.462;2022-12-29T15:11:54;9.85;;;6.55;;
75930;SDS011;64609;47.052;15.462;2022-12-29T15:16:57;13.32;;;6.40;;
75930;SDS011;64609;47.052;15.462;2022-12-29T15:19:24;13.57;;;6.97;;
75930;SDS011;64609;47.052;15.462;2022-12-29T15:21:52;14.63;;;7.10;;
75930;SDS011;64609;47.052;15.462;2022-12-29T15:24:20;14.00;;;6.78;;
75930;SDS011;64609;47.052;15.462;2022-12-29T15:26:48;15.80;;;7.07;;
75930;SDS011;64609;47.052;15.462;2022-12-29T15:34:25;12.40;;;6.55;;
75930;SDS011;64609;47.052;15.462;2022-12-29T15:36:55;20.02;;;7.30;;
75930;SDS011;64609;47.052;15.462;2022-12-29T15:39:26;19.63;;;7.80;;
75930;SDS011;64609;47.052;15.462;2022-12-29T15:42:16;19.08;;;7.80;;
75930;SDS011;64609;47.052;15.462;2022-12-29T15:44:52;22.42;;;8.50;;
75930;SDS011;64609;47.052;15.462;2022-12-29T15:47:23;17.67;;;8.02;;
75930;SDS011;64609;47.052;15.462;2022-12-29T15:49:52;18.20;;;9.00;;
75930;SDS011;64609;47.052;15.462;2022-12-29T15:54:48;22.23;;;11.07;;
75930;SDS011;64609;47.052;15.462;2022-12-29T15:57:36;29.27;;;13.93;;
75930;SDS011;64609;47.052;15.462;2022-12-29T16:03:12;63.22;;;30.58;;
75930;SDS011;64609;47.052;15.462;2022-12-29T16:05:40;72.05;;;36.05;;
75930;SDS011;64609;47.052;15.462;2022-12-29T16:08:21;50.78;;;29.20;;
75930;SDS011;64609;47.052;15.462;2022-12-29T16:10:58;36.63;;;19.65;;
75930;SDS011;64609;47.052;15.462;2022-12-29T16:13:28;28.83;;;17.08;;
75930;SDS011;64609;47.052;15.462;2022-12-29T16:16:02;32.63;;;17.50;;
75930;SDS011;64609;47.052;15.462;2022-12-29T16:18:37;28.95;;;17.23;;
75930;SDS011;64609;47.052;15.462;2022-12-29T16:21:03;29.90;;;17.60;;
75930;SDS011;64609;47.052;15.462;2022-12-29T16:23:31;36.78;;;18.75;;
75930;SDS011;64609;47.052;15.462;2022-12-29T16:26:00;36.60;;;20.87;;
75930;SDS011;64609;47.052;15.462;2022-12-29T16:28:36;45.25;;;23.38;;
75930;SDS011;64609;47.052;15.462;2022-12-29T16:31:21;38.58;;;20.65;;
75930;SDS011;64609;47.052;15.462;2022-12-29T16:36:30;34.28;;;18.67;;
75930;SDS011;64609;47.052;15.462;2022-12-29T16:41:49;57.10;;;34.55;;
75930;SDS011;64609;47.052;15.462;2022-12-29T16:44:16;47.28;;;26.00;;
75930;SDS011;64609;47.052;15.462;2022-12-29T16:47:30;66.03;;;38.33;;
75930;SDS011;64609;47.052;15.462;2022-12-29T16:49:34;61.17;;;35.30;;
75930;SDS011;64609;47.052;15.462;2022-12-29T16:52:01;65.43;;;35.90;;
75930;SDS011;64609;47.052;15.462;2022-12-29T16:54:36;52.50;;;31.88;;
75930;SDS011;64609;47.052;15.462;2022-12-29T16:57:03;60.53;;;35.08;;
75930;SDS011;64609;47.052;15.462;2022-12-29T16:59:39;71.95;;;38.95;;
75930;SDS011;64609;47.052;15.462;2022-12-29T17:02:14;63.10;;;35.60;;
75930;SDS011;64609;47.052;15.462;2022-12-29T17:04:41;46.67;;;27.73;;
75930;SDS011;64609;47.052;15.462;2022-12-29T17:07:15;30.90;;;18.63;;
75930;SDS011;64609;47.052;15.462;2022-12-29T17:09:42;33.70;;;17.77;;
75930;SDS011;64609;47.052;15.462;2022-12-29T17:12:07;37.70;;;15.90;;